sensor_id;sensor_type;location;lat;lon;timestamp;P1;durP1;ratioP1;P2;durP2;ratioP2
73699;SDS011;62005;50.082;8.988;2023-04-25T00:00:42;4.30;;;2.13;;
73699;SDS011;62005;50.082;8.988;2023-04-25T00:03:08;4.10;;;1.77;;
73699;SDS011;62005;50.082;8.988;2023-04-25T00:05:33;3.42;;;1.90;;
73699;SDS011;62005;50.082;8.988;2023-04-25T00:07:59;3.72;;;1.95;;
73699;SDS011;62005;50.082;8.988;2023-04-25T00:10:25;4.45;;;2.40;;
73699;SDS011;62005;50.082;8.988;2023-04-25T00:12:50;4.35;;;2.47;;
73699;SDS011;62005;50.082;8.988;2023-04-25T00:15:16;5.57;;;2.58;;
73699;SDS011;62005;50.082;8.988;2023-04-25T00:17:42;5.15;;;2.30;;
73699;SDS011;62005;50.082;8.988;2023-04-25T00:20:08;4.57;;;2.57;;
73699;SDS011;62005;50.082;8.988;2023-04-25T00:22:34;4.72;;;2.50;;
73699;SDS011;62005;50.082;8.988;2023-04-25T00:25:02;6.55;;;2.33;;
73699;SDS011;62005;50.082;8.988;2023-04-25T00:27:28;4.25;;;1.92;;
73699;SDS011;62005;50.082;8.988;2023-04-25T00:29:53;5.30;;;2.53;;
73699;SDS011;62005;50.082;8.988;2023-04-25T00:32:19;5.33;;;2.53;;
73699;SDS011;62005;50.082;8.988;2023-04-25T00:34:44;4.10;;;2.00;;
73699;SDS011;62005;50.082;8.988;2023-04-25T00:37:09;3.80;;;2.13;;
73699;SDS011;62005;50.082;8.988;2023-04-25T00:39:35;3.72;;;2.13;;
73699;SDS011;62005;50.082;8.988;2023-04-25T00:42:00;4.40;;;2.10;;
73699;SDS011;62005;50.082;8.988;2023-04-25T00:44:27;5.18;;;2.22;;
73699;SDS011;62005;50.082;8.988;2023-04-25T00:46:55;4.78;;;2.20;;
73699;SDS011;62005;50.082;8.988;2023-04-25T00:49:20;4.40;;;2.10;;
73699;SDS011;62005;50.082;8.988;2023-04-25T00:51:46;4.68;;;2.92;;
73699;SDS011;62005;50.082;8.988;2023-04-25T00:54:12;3.55;;;2.05;;
73699;SDS011;62005;50.082;8.988;2023-04-25T00:56:38;4.57;;;2.25;;
73699;SDS011;62005;50.082;8.988;2023-04-25T00:59:04;3.72;;;1.95;;
73699;SDS011;62005;50.082;8.988;2023-04-25T01:01:29;4.18;;;2.38;;
73699;SDS011;62005;50.082;8.988;2023-04-25T01:03:56;4.00;;;1.90;;
73699;SDS011;62005;50.082;8.988;2023-04-25T01:08:48;2.53;;;1.33;;
73699;SDS011;62005;50.082;8.988;2023-04-25T01:11:13;5.13;;;1.97;;
73699;SDS011;62005;50.082;8.988;2023-04-25T01:13:39;3.97;;;1.42;;
73699;SDS011;62005;50.082;8.988;2023-04-25T01:16:05;4.28;;;1.77;;
73699;SDS011;62005;50.082;8.988;2023-04-25T01:18:30;3.45;;;1.35;;
73699;SDS011;62005;50.082;8.988;2023-04-25T01:20:56;3.25;;;1.95;;
73699;SDS011;62005;50.082;8.988;2023-04-25T01:23:31;3.70;;;1.55;;
73699;SDS011;62005;50.082;8.988;2023-04-25T01:25:58;2.85;;;1.58;;
73699;SDS011;62005;50.082;8.988;2023-04-25T01:28:24;3.00;;;2.10;;
73699;SDS011;62005;50.082;8.988;2023-04-25T01:30:49;4.35;;;2.20;;
73699;SDS011;62005;50.082;8.988;2023-04-25T01:33:16;2.08;;;1.25;;
73699;SDS011;62005;50.082;8.988;2023-04-25T01:35:42;2.72;;;1.30;;
73699;SDS011;62005;50.082;8.988;2023-04-25T01:38:07;2.95;;;1.75;;
73699;SDS011;62005;50.082;8.988;2023-04-25T01:40:33;2.55;;;1.48;;
73699;SDS011;62005;50.082;8.988;2023-04-25T01:43:00;2.55;;;1.30;;
73699;SDS011;62005;50.082;8.988;2023-04-25T01:45:26;4.97;;;1.85;;
73699;SDS011;62005;50.082;8.988;2023-04-25T01:47:54;3.38;;;1.38;;
73699;SDS011;62005;50.082;8.988;2023-04-25T01:50:19;3.45;;;1.90;;
73699;SDS011;62005;50.082;8.988;2023-04-25T01:52:45;3.30;;;1.77;;
73699;SDS011;62005;50.082;8.988;2023-04-25T01:55:10;2.90;;;1.60;;
73699;SDS011;62005;50.082;8.988;2023-04-25T01:57:36;3.35;;;1.75;;
73699;SDS011;62005;50.082;8.988;2023-04-25T02:00:02;4.93;;;2.20;;
73699;SDS011;62005;50.082;8.988;2023-04-25T02:02:30;3.85;;;2.17;;
73699;SDS011;62005;50.082;8.988;2023-04-25T02:04:56;3.70;;;1.90;;
73699;SDS011;62005;50.082;8.988;2023-04-25T02:07:21;4.23;;;2.37;;
73699;SDS011;62005;50.082;8.988;2023-04-25T02:09:47;4.25;;;2.30;;
73699;SDS011;62005;50.082;8.988;2023-04-25T02:12:12;7.75;;;2.53;;
73699;SDS011;62005;50.082;8.988;2023-04-25T02:14:38;4.07;;;2.67;;
73699;SDS011;62005;50.082;8.988;2023-04-25T02:17:03;4.18;;;2.33;;
73699;SDS011;62005;50.082;8.988;2023-04-25T02:19:29;3.92;;;2.03;;
73699;SDS011;62005;50.082;8.988;2023-04-25T02:21:54;5.20;;;2.40;;
73699;SDS011;62005;50.082;8.988;2023-04-25T02:24:20;5.28;;;2.90;;
73699;SDS011;62005;50.082;8.988;2023-04-25T02:26:45;4.65;;;2.00;;
73699;SDS011;62005;50.082;8.988;2023-04-25T02:29:11;3.78;;;1.95;;
73699;SDS011;62005;50.082;8.988;2023-04-25T02:31:37;4.30;;;2.38;;
73699;SDS011;62005;50.082;8.988;2023-04-25T02:34:02;4.23;;;2.33;;
73699;SDS011;62005;50.082;8.988;2023-04-25T02:36:27;4.77;;;2.67;;
73699;SDS011;62005;50.082;8.988;2023-04-25T02:38:55;4.03;;;2.30;;
73699;SDS011;62005;50.082;8.988;2023-04-25T02:41:20;5.27;;;2.50;;
73699;SDS011;62005;50.082;8.988;2023-04-25T02:43:46;5.45;;;2.38;;
73699;SDS011;62005;50.082;8.988;2023-04-25T02:46:11;4.43;;;1.80;;
73699;SDS011;62005;50.082;8.988;2023-04-25T02:48:36;5.20;;;2.58;;
73699;SDS011;62005;50.082;8.988;2023-04-25T02:51:02;4.17;;;2.23;;
73699;SDS011;62005;50.082;8.988;2023-04-25T02:53:27;5.50;;;2.38;;
73699;SDS011;62005;50.082;8.988;2023-04-25T02:55:52;4.07;;;2.63;;
73699;SDS011;62005;50.082;8.988;2023-04-25T02:58:18;5.00;;;2.45;;
73699;SDS011;62005;50.082;8.988;2023-04-25T03:00:43;6.05;;;2.40;;
73699;SDS011;62005;50.082;8.988;2023-04-25T03:03:09;5.47;;;2.50;;
73699;SDS011;62005;50.082;8.988;2023-04-25T03:05:34;5.60;;;2.90;;
73699;SDS011;62005;50.082;8.988;2023-04-25T03:08:00;3.92;;;2.35;;
73699;SDS011;62005;50.082;8.988;2023-04-25T03:10:25;4.10;;;2.63;;
73699;SDS011;62005;50.082;8.988;2023-04-25T03:12:51;5.15;;;2.78;;
73699;SDS011;62005;50.082;8.988;2023-04-25T03:15:16;5.03;;;2.50;;
73699;SDS011;62005;50.082;8.988;2023-04-25T03:17:41;5.90;;;2.43;;
73699;SDS011;62005;50.082;8.988;2023-04-25T03:20:07;4.63;;;2.35;;
73699;SDS011;62005;50.082;8.988;2023-04-25T03:22:33;7.50;;;2.92;;
73699;SDS011;62005;50.082;8.988;2023-04-25T03:24:58;5.35;;;2.85;;
73699;SDS011;62005;50.082;8.988;2023-04-25T03:27:24;5.72;;;2.65;;
73699;SDS011;62005;50.082;8.988;2023-04-25T03:29:49;4.18;;;2.72;;
73699;SDS011;62005;50.082;8.988;2023-04-25T03:32:15;4.97;;;2.57;;
73699;SDS011;62005;50.082;8.988;2023-04-25T03:34:40;4.85;;;2.70;;
73699;SDS011;62005;50.082;8.988;2023-04-25T03:37:06;5.05;;;2.10;;
73699;SDS011;62005;50.082;8.988;2023-04-25T03:39:31;4.23;;;2.37;;
73699;SDS011;62005;50.082;8.988;2023-04-25T03:41:57;4.90;;;2.47;;
73699;SDS011;62005;50.082;8.988;2023-04-25T03:44:22;5.15;;;2.33;;
73699;SDS011;62005;50.082;8.988;2023-04-25T03:46:49;5.63;;;2.75;;
73699;SDS011;62005;50.082;8.988;2023-04-25T03:49:14;4.90;;;2.13;;
73699;SDS011;62005;50.082;8.988;2023-04-25T03:51:39;5.27;;;2.63;;
73699;SDS011;62005;50.082;8.988;2023-04-25T03:54:05;3.53;;;2.00;;
73699;SDS011;62005;50.082;8.988;2023-04-25T03:56:30;4.90;;;2.65;;
73699;SDS011;62005;50.082;8.988;2023-04-25T03:58:56;6.10;;;3.10;;
73699;SDS011;62005;50.082;8.988;2023-04-25T04:01:21;6.17;;;3.50;;
73699;SDS011;62005;50.082;8.988;2023-04-25T04:03:46;5.40;;;2.97;;
73699;SDS011;62005;50.082;8.988;2023-04-25T04:06:11;4.83;;;2.87;;
73699;SDS011;62005;50.082;8.988;2023-04-25T04:08:38;6.10;;;3.00;;
73699;SDS011;62005;50.082;8.988;2023-04-25T04:11:03;6.78;;;3.45;;
73699;SDS011;62005;50.082;8.988;2023-04-25T04:13:29;6.57;;;3.10;;
73699;SDS011;62005;50.082;8.988;2023-04-25T04:15:54;5.47;;;3.55;;
73699;SDS011;62005;50.082;8.988;2023-04-25T04:18:20;8.05;;;3.28;;
73699;SDS011;62005;50.082;8.988;2023-04-25T04:20:46;5.65;;;3.25;;
73699;SDS011;62005;50.082;8.988;2023-04-25T04:23:12;5.75;;;3.10;;
73699;SDS011;62005;50.082;8.988;2023-04-25T04:25:37;8.38;;;3.80;;
73699;SDS011;62005;50.082;8.988;2023-04-25T04:28:04;8.07;;;4.13;;
73699;SDS011;62005;50.082;8.988;2023-04-25T04:30:31;7.82;;;3.00;;
73699;SDS011;62005;50.082;8.988;2023-04-25T04:32:59;11.15;;;3.25;;
73699;SDS011;62005;50.082;8.988;2023-04-25T04:35:25;12.60;;;3.70;;
73699;SDS011;62005;50.082;8.988;2023-04-25T04:37:51;7.22;;;3.00;;
73699;SDS011;62005;50.082;8.988;2023-04-25T04:40:17;6.37;;;2.90;;
73699;SDS011;62005;50.082;8.988;2023-04-25T04:42:43;7.80;;;3.05;;
73699;SDS011;62005;50.082;8.988;2023-04-25T04:45:10;7.88;;;3.20;;
73699;SDS011;62005;50.082;8.988;2023-04-25T04:47:36;9.88;;;3.58;;
73699;SDS011;62005;50.082;8.988;2023-04-25T04:50:01;7.40;;;3.00;;
73699;SDS011;62005;50.082;8.988;2023-04-25T04:52:27;7.70;;;2.83;;
73699;SDS011;62005;50.082;8.988;2023-04-25T04:54:53;15.43;;;3.50;;
73699;SDS011;62005;50.082;8.988;2023-04-25T04:57:18;9.57;;;3.40;;
73699;SDS011;62005;50.082;8.988;2023-04-25T04:59:43;7.33;;;3.20;;
73699;SDS011;62005;50.082;8.988;2023-04-25T05:02:09;6.93;;;3.47;;
73699;SDS011;62005;50.082;8.988;2023-04-25T05:04:35;10.20;;;3.22;;
73699;SDS011;62005;50.082;8.988;2023-04-25T05:07:00;8.40;;;3.60;;
73699;SDS011;62005;50.082;8.988;2023-04-25T05:09:26;9.00;;;3.45;;
73699;SDS011;62005;50.082;8.988;2023-04-25T05:11:51;10.55;;;3.50;;
73699;SDS011;62005;50.082;8.988;2023-04-25T05:14:17;8.27;;;3.10;;
73699;SDS011;62005;50.082;8.988;2023-04-25T05:16:45;9.90;;;3.30;;
73699;SDS011;62005;50.082;8.988;2023-04-25T05:19:10;10.13;;;3.55;;
73699;SDS011;62005;50.082;8.988;2023-04-25T05:21:36;8.35;;;3.70;;
73699;SDS011;62005;50.082;8.988;2023-04-25T05:24:01;14.35;;;4.68;;
73699;SDS011;62005;50.082;8.988;2023-04-25T05:26:30;6.43;;;2.90;;
73699;SDS011;62005;50.082;8.988;2023-04-25T05:28:56;9.70;;;3.35;;
73699;SDS011;62005;50.082;8.988;2023-04-25T05:31:25;10.60;;;3.70;;
73699;SDS011;62005;50.082;8.988;2023-04-25T05:33:51;8.68;;;3.20;;
73699;SDS011;62005;50.082;8.988;2023-04-25T05:36:18;5.55;;;2.92;;
73699;SDS011;62005;50.082;8.988;2023-04-25T05:38:43;10.13;;;2.45;;
73699;SDS011;62005;50.082;8.988;2023-04-25T05:41:12;9.07;;;3.08;;
73699;SDS011;62005;50.082;8.988;2023-04-25T05:43:37;5.40;;;2.45;;
73699;SDS011;62005;50.082;8.988;2023-04-25T05:46:14;9.30;;;2.42;;
73699;SDS011;62005;50.082;8.988;2023-04-25T05:49:01;7.30;;;2.30;;
73699;SDS011;62005;50.082;8.988;2023-04-25T05:51:34;8.52;;;2.17;;
73699;SDS011;62005;50.082;8.988;2023-04-25T05:53:59;9.30;;;3.57;;
73699;SDS011;62005;50.082;8.988;2023-04-25T05:59:34;5.28;;;2.05;;
73699;SDS011;62005;50.082;8.988;2023-04-25T06:18:54;7.80;;;2.20;;
73699;SDS011;62005;50.082;8.988;2023-04-25T06:33:06;3.85;;;1.42;;
73699;SDS011;62005;50.082;8.988;2023-04-25T06:35:33;4.53;;;1.40;;
73699;SDS011;62005;50.082;8.988;2023-04-25T06:37:59;5.30;;;1.63;;
73699;SDS011;62005;50.082;8.988;2023-04-25T06:40:27;3.92;;;1.50;;
73699;SDS011;62005;50.082;8.988;2023-04-25T06:56:34;4.75;;;1.70;;
73699;SDS011;62005;50.082;8.988;2023-04-25T06:59:59;5.72;;;1.83;;
73699;SDS011;62005;50.082;8.988;2023-04-25T07:02:33;7.40;;;1.67;;
73699;SDS011;62005;50.082;8.988;2023-04-25T07:29:57;5.70;;;1.60;;
73699;SDS011;62005;50.082;8.988;2023-04-25T07:32:22;5.65;;;1.83;;
73699;SDS011;62005;50.082;8.988;2023-04-25T07:34:48;6.70;;;1.42;;
73699;SDS011;62005;50.082;8.988;2023-04-25T07:40:46;3.85;;;1.40;;
73699;SDS011;62005;50.082;8.988;2023-04-25T07:43:17;3.30;;;1.15;;
73699;SDS011;62005;50.082;8.988;2023-04-25T07:45:45;3.90;;;1.30;;
73699;SDS011;62005;50.082;8.988;2023-04-25T07:48:15;5.32;;;1.95;;
73699;SDS011;62005;50.082;8.988;2023-04-25T07:50:47;4.60;;;1.20;;
73699;SDS011;62005;50.082;8.988;2023-04-25T07:53:13;6.15;;;1.02;;
73699;SDS011;62005;50.082;8.988;2023-04-25T07:55:38;3.97;;;1.23;;
73699;SDS011;62005;50.082;8.988;2023-04-25T07:58:36;5.93;;;1.48;;
73699;SDS011;62005;50.082;8.988;2023-04-25T08:01:04;4.05;;;1.83;;
73699;SDS011;62005;50.082;8.988;2023-04-25T08:03:33;6.07;;;0.85;;
73699;SDS011;62005;50.082;8.988;2023-04-25T08:20:17;5.47;;;1.40;;
73699;SDS011;62005;50.082;8.988;2023-04-25T08:23:12;5.88;;;1.23;;
73699;SDS011;62005;50.082;8.988;2023-04-25T08:26:05;4.68;;;1.13;;
73699;SDS011;62005;50.082;8.988;2023-04-25T08:28:58;3.97;;;1.33;;
73699;SDS011;62005;50.082;8.988;2023-04-25T08:31:31;4.03;;;1.30;;
73699;SDS011;62005;50.082;8.988;2023-04-25T08:33:56;7.23;;;1.73;;
73699;SDS011;62005;50.082;8.988;2023-04-25T08:36:54;5.20;;;1.70;;
73699;SDS011;62005;50.082;8.988;2023-04-25T08:43:49;4.75;;;1.00;;
73699;SDS011;62005;50.082;8.988;2023-04-25T08:46:41;5.22;;;1.50;;
73699;SDS011;62005;50.082;8.988;2023-04-25T08:49:37;3.20;;;0.93;;
73699;SDS011;62005;50.082;8.988;2023-04-25T08:52:36;5.20;;;0.85;;
73699;SDS011;62005;50.082;8.988;2023-04-25T08:55:10;5.07;;;0.93;;
73699;SDS011;62005;50.082;8.988;2023-04-25T08:57:47;3.92;;;1.38;;
73699;SDS011;62005;50.082;8.988;2023-04-25T09:00:17;4.57;;;1.25;;
73699;SDS011;62005;50.082;8.988;2023-04-25T09:02:44;6.90;;;1.65;;
73699;SDS011;62005;50.082;8.988;2023-04-25T09:05:12;6.63;;;1.25;;
73699;SDS011;62005;50.082;8.988;2023-04-25T09:07:44;6.85;;;1.70;;
73699;SDS011;62005;50.082;8.988;2023-04-25T09:10:14;4.78;;;1.02;;
73699;SDS011;62005;50.082;8.988;2023-04-25T09:16:02;5.13;;;1.58;;
73699;SDS011;62005;50.082;8.988;2023-04-25T09:18:39;3.70;;;1.52;;
73699;SDS011;62005;50.082;8.988;2023-04-25T09:21:08;9.57;;;2.10;;
73699;SDS011;62005;50.082;8.988;2023-04-25T09:23:46;5.15;;;1.83;;
73699;SDS011;62005;50.082;8.988;2023-04-25T09:26:21;3.58;;;1.15;;
73699;SDS011;62005;50.082;8.988;2023-04-25T09:28:57;3.15;;;1.23;;
73699;SDS011;62005;50.082;8.988;2023-04-25T09:31:31;6.47;;;1.75;;
73699;SDS011;62005;50.082;8.988;2023-04-25T09:34:01;6.80;;;1.45;;
73699;SDS011;62005;50.082;8.988;2023-04-25T09:36:29;3.35;;;1.30;;
73699;SDS011;62005;50.082;8.988;2023-04-25T09:39:05;3.08;;;1.33;;
73699;SDS011;62005;50.082;8.988;2023-04-25T09:41:40;4.30;;;1.20;;
73699;SDS011;62005;50.082;8.988;2023-04-25T09:44:12;3.30;;;1.27;;
73699;SDS011;62005;50.082;8.988;2023-04-25T09:46:43;4.88;;;1.27;;
73699;SDS011;62005;50.082;8.988;2023-04-25T09:49:12;6.95;;;1.23;;
73699;SDS011;62005;50.082;8.988;2023-04-25T09:51:40;6.28;;;1.30;;
73699;SDS011;62005;50.082;8.988;2023-04-25T09:54:05;6.27;;;1.60;;
73699;SDS011;62005;50.082;8.988;2023-04-25T09:56:30;5.47;;;1.25;;
73699;SDS011;62005;50.082;8.988;2023-04-25T09:59:02;4.85;;;0.98;;
73699;SDS011;62005;50.082;8.988;2023-04-25T10:01:28;3.10;;;1.05;;
73699;SDS011;62005;50.082;8.988;2023-04-25T10:03:53;5.38;;;1.17;;
73699;SDS011;62005;50.082;8.988;2023-04-25T10:06:27;4.65;;;1.25;;
73699;SDS011;62005;50.082;8.988;2023-04-25T10:08:56;3.67;;;1.48;;
73699;SDS011;62005;50.082;8.988;2023-04-25T10:11:26;2.28;;;1.05;;
73699;SDS011;62005;50.082;8.988;2023-04-25T10:14:00;4.05;;;1.23;;
73699;SDS011;62005;50.082;8.988;2023-04-25T10:16:29;6.07;;;0.85;;
73699;SDS011;62005;50.082;8.988;2023-04-25T10:19:01;3.50;;;1.38;;
73699;SDS011;62005;50.082;8.988;2023-04-25T10:21:30;2.75;;;1.02;;
73699;SDS011;62005;50.082;8.988;2023-04-25T10:24:13;2.90;;;1.20;;
73699;SDS011;62005;50.082;8.988;2023-04-25T10:27:03;5.13;;;1.52;;
73699;SDS011;62005;50.082;8.988;2023-04-25T10:29:35;5.32;;;1.42;;
73699;SDS011;62005;50.082;8.988;2023-04-25T10:32:00;4.78;;;1.85;;
73699;SDS011;62005;50.082;8.988;2023-04-25T10:34:43;5.75;;;1.48;;
73699;SDS011;62005;50.082;8.988;2023-04-25T10:37:12;4.72;;;1.90;;
73699;SDS011;62005;50.082;8.988;2023-04-25T10:39:40;4.25;;;1.90;;
73699;SDS011;62005;50.082;8.988;2023-04-25T10:42:06;5.78;;;1.52;;
73699;SDS011;62005;50.082;8.988;2023-04-25T10:44:36;6.13;;;1.33;;
73699;SDS011;62005;50.082;8.988;2023-04-25T10:47:05;4.32;;;1.67;;
73699;SDS011;62005;50.082;8.988;2023-04-25T10:49:36;4.65;;;1.52;;
73699;SDS011;62005;50.082;8.988;2023-04-25T10:52:27;7.50;;;1.60;;
73699;SDS011;62005;50.082;8.988;2023-04-25T10:54:55;4.95;;;1.70;;
73699;SDS011;62005;50.082;8.988;2023-04-25T10:57:40;4.20;;;1.52;;
73699;SDS011;62005;50.082;8.988;2023-04-25T11:03:15;4.65;;;1.52;;
73699;SDS011;62005;50.082;8.988;2023-04-25T11:05:32;3.85;;;1.65;;
73699;SDS011;62005;50.082;8.988;2023-04-25T11:07:59;4.05;;;1.98;;
73699;SDS011;62005;50.082;8.988;2023-04-25T11:10:32;4.95;;;1.52;;
73699;SDS011;62005;50.082;8.988;2023-04-25T11:13:03;4.22;;;1.50;;
73699;SDS011;62005;50.082;8.988;2023-04-25T11:15:29;3.05;;;1.15;;
73699;SDS011;62005;50.082;8.988;2023-04-25T11:17:59;2.88;;;1.38;;
73699;SDS011;62005;50.082;8.988;2023-04-25T11:20:28;3.25;;;1.02;;
73699;SDS011;62005;50.082;8.988;2023-04-25T11:22:58;2.45;;;1.02;;
73699;SDS011;62005;50.082;8.988;2023-04-25T11:25:27;2.63;;;1.05;;
73699;SDS011;62005;50.082;8.988;2023-04-25T11:28:00;3.13;;;1.02;;
73699;SDS011;62005;50.082;8.988;2023-04-25T11:30:26;5.30;;;1.25;;
73699;SDS011;62005;50.082;8.988;2023-04-25T11:32:53;4.65;;;1.13;;
73699;SDS011;62005;50.082;8.988;2023-04-25T11:35:19;2.60;;;1.10;;
73699;SDS011;62005;50.082;8.988;2023-04-25T11:37:45;4.13;;;1.08;;
73699;SDS011;62005;50.082;8.988;2023-04-25T11:40:11;2.95;;;0.82;;
73699;SDS011;62005;50.082;8.988;2023-04-25T11:42:37;3.17;;;0.82;;
73699;SDS011;62005;50.082;8.988;2023-04-25T11:45:04;2.50;;;0.75;;
73699;SDS011;62005;50.082;8.988;2023-04-25T11:47:30;4.60;;;1.15;;
73699;SDS011;62005;50.082;8.988;2023-04-25T11:49:59;5.43;;;1.05;;
73699;SDS011;62005;50.082;8.988;2023-04-25T11:52:37;2.10;;;0.88;;
73699;SDS011;62005;50.082;8.988;2023-04-25T11:55:08;3.33;;;0.73;;
73699;SDS011;62005;50.082;8.988;2023-04-25T11:57:35;4.22;;;0.88;;
73699;SDS011;62005;50.082;8.988;2023-04-25T12:00:15;3.22;;;1.25;;
73699;SDS011;62005;50.082;8.988;2023-04-25T12:02:53;4.05;;;0.85;;
73699;SDS011;62005;50.082;8.988;2023-04-25T12:07:45;3.25;;;0.63;;
73699;SDS011;62005;50.082;8.988;2023-04-25T12:10:15;3.67;;;0.93;;
73699;SDS011;62005;50.082;8.988;2023-04-25T12:12:42;4.70;;;1.73;;
73699;SDS011;62005;50.082;8.988;2023-04-25T12:15:15;3.30;;;0.63;;
73699;SDS011;62005;50.082;8.988;2023-04-25T12:17:49;3.00;;;1.20;;
73699;SDS011;62005;50.082;8.988;2023-04-25T12:20:16;2.80;;;1.00;;
73699;SDS011;62005;50.082;8.988;2023-04-25T12:22:46;2.00;;;0.68;;
73699;SDS011;62005;50.082;8.988;2023-04-25T12:25:58;3.13;;;0.85;;
73699;SDS011;62005;50.082;8.988;2023-04-25T12:28:13;5.05;;;1.10;;
73699;SDS011;62005;50.082;8.988;2023-04-25T12:33:41;2.70;;;0.90;;
73699;SDS011;62005;50.082;8.988;2023-04-25T12:36:07;4.22;;;0.98;;
73699;SDS011;62005;50.082;8.988;2023-04-25T12:38:38;3.22;;;0.82;;
73699;SDS011;62005;50.082;8.988;2023-04-25T12:41:05;3.55;;;1.48;;
73699;SDS011;62005;50.082;8.988;2023-04-25T12:43:30;4.05;;;0.85;;
73699;SDS011;62005;50.082;8.988;2023-04-25T12:45:56;6.07;;;1.10;;
73699;SDS011;62005;50.082;8.988;2023-04-25T12:48:24;3.15;;;0.70;;
73699;SDS011;62005;50.082;8.988;2023-04-25T12:50:50;2.53;;;1.00;;
73699;SDS011;62005;50.082;8.988;2023-04-25T12:53:19;4.97;;;0.80;;
73699;SDS011;62005;50.082;8.988;2023-04-25T12:55:47;6.45;;;0.95;;
73699;SDS011;62005;50.082;8.988;2023-04-25T12:58:19;3.58;;;0.65;;
73699;SDS011;62005;50.082;8.988;2023-04-25T13:00:48;3.67;;;0.88;;
73699;SDS011;62005;50.082;8.988;2023-04-25T13:03:25;4.97;;;0.77;;
73699;SDS011;62005;50.082;8.988;2023-04-25T13:05:50;2.63;;;0.60;;
73699;SDS011;62005;50.082;8.988;2023-04-25T13:08:17;3.30;;;0.77;;
73699;SDS011;62005;50.082;8.988;2023-04-25T13:10:43;4.13;;;0.70;;
73699;SDS011;62005;50.082;8.988;2023-04-25T13:13:08;3.70;;;0.60;;
73699;SDS011;62005;50.082;8.988;2023-04-25T13:15:34;2.03;;;0.53;;
73699;SDS011;62005;50.082;8.988;2023-04-25T13:18:00;5.00;;;0.95;;
73699;SDS011;62005;50.082;8.988;2023-04-25T13:20:28;3.97;;;0.65;;
73699;SDS011;62005;50.082;8.988;2023-04-25T13:22:53;4.50;;;0.77;;
73699;SDS011;62005;50.082;8.988;2023-04-25T13:25:19;4.43;;;0.63;;
73699;SDS011;62005;50.082;8.988;2023-04-25T13:27:47;6.93;;;1.00;;
73699;SDS011;62005;50.082;8.988;2023-04-25T13:30:15;3.53;;;0.80;;
73699;SDS011;62005;50.082;8.988;2023-04-25T13:32:41;3.97;;;0.75;;
73699;SDS011;62005;50.082;8.988;2023-04-25T13:35:10;5.25;;;0.85;;
73699;SDS011;62005;50.082;8.988;2023-04-25T13:37:39;4.30;;;1.02;;
73699;SDS011;62005;50.082;8.988;2023-04-25T13:40:06;3.85;;;1.05;;
73699;SDS011;62005;50.082;8.988;2023-04-25T13:42:34;3.83;;;1.00;;
73699;SDS011;62005;50.082;8.988;2023-04-25T13:45:00;4.55;;;1.15;;
73699;SDS011;62005;50.082;8.988;2023-04-25T13:47:31;4.25;;;1.15;;
73699;SDS011;62005;50.082;8.988;2023-04-25T13:50:00;3.05;;;0.90;;
73699;SDS011;62005;50.082;8.988;2023-04-25T13:52:27;7.38;;;1.23;;
73699;SDS011;62005;50.082;8.988;2023-04-25T13:54:59;5.05;;;1.45;;
73699;SDS011;62005;50.082;8.988;2023-04-25T13:57:24;2.67;;;0.90;;
73699;SDS011;62005;50.082;8.988;2023-04-25T13:59:50;8.18;;;1.02;;
73699;SDS011;62005;50.082;8.988;2023-04-25T14:02:19;3.88;;;1.10;;
73699;SDS011;62005;50.082;8.988;2023-04-25T14:04:48;5.22;;;0.98;;
73699;SDS011;62005;50.082;8.988;2023-04-25T14:07:13;3.53;;;0.90;;
73699;SDS011;62005;50.082;8.988;2023-04-25T14:09:41;5.72;;;1.20;;
73699;SDS011;62005;50.082;8.988;2023-04-25T14:12:06;4.57;;;0.93;;
73699;SDS011;62005;50.082;8.988;2023-04-25T14:14:34;5.80;;;1.45;;
73699;SDS011;62005;50.082;8.988;2023-04-25T14:17:00;3.90;;;1.17;;
73699;SDS011;62005;50.082;8.988;2023-04-25T14:19:26;2.30;;;0.82;;
73699;SDS011;62005;50.082;8.988;2023-04-25T14:21:57;3.72;;;1.08;;
73699;SDS011;62005;50.082;8.988;2023-04-25T14:24:22;3.95;;;1.02;;
73699;SDS011;62005;50.082;8.988;2023-04-25T14:26:48;5.13;;;1.20;;
73699;SDS011;62005;50.082;8.988;2023-04-25T14:29:13;7.90;;;1.48;;
73699;SDS011;62005;50.082;8.988;2023-04-25T14:31:39;4.57;;;1.20;;
73699;SDS011;62005;50.082;8.988;2023-04-25T14:34:05;4.05;;;1.38;;
73699;SDS011;62005;50.082;8.988;2023-04-25T14:36:38;5.20;;;1.17;;
73699;SDS011;62005;50.082;8.988;2023-04-25T14:39:14;4.35;;;1.13;;
73699;SDS011;62005;50.082;8.988;2023-04-25T14:41:47;2.85;;;0.88;;
73699;SDS011;62005;50.082;8.988;2023-04-25T14:44:35;5.15;;;1.13;;
73699;SDS011;62005;50.082;8.988;2023-04-25T14:47:00;5.53;;;0.80;;
73699;SDS011;62005;50.082;8.988;2023-04-25T14:49:25;4.57;;;1.05;;
73699;SDS011;62005;50.082;8.988;2023-04-25T14:51:56;6.57;;;1.17;;
73699;SDS011;62005;50.082;8.988;2023-04-25T14:54:27;2.58;;;0.90;;
73699;SDS011;62005;50.082;8.988;2023-04-25T14:56:58;3.67;;;0.93;;
73699;SDS011;62005;50.082;8.988;2023-04-25T14:59:27;3.67;;;0.65;;
73699;SDS011;62005;50.082;8.988;2023-04-25T15:01:55;3.35;;;1.13;;
73699;SDS011;62005;50.082;8.988;2023-04-25T15:04:24;2.05;;;0.82;;
73699;SDS011;62005;50.082;8.988;2023-04-25T15:06:49;3.63;;;0.90;;
73699;SDS011;62005;50.082;8.988;2023-04-25T15:09:17;2.08;;;0.55;;
73699;SDS011;62005;50.082;8.988;2023-04-25T15:11:42;1.15;;;0.38;;
73699;SDS011;62005;50.082;8.988;2023-04-25T15:14:08;5.65;;;1.10;;
73699;SDS011;62005;50.082;8.988;2023-04-25T15:16:33;5.97;;;1.35;;
73699;SDS011;62005;50.082;8.988;2023-04-25T15:18:59;4.05;;;1.67;;
73699;SDS011;62005;50.082;8.988;2023-04-25T15:21:30;3.17;;;0.82;;
73699;SDS011;62005;50.082;8.988;2023-04-25T15:23:59;3.78;;;0.90;;
73699;SDS011;62005;50.082;8.988;2023-04-25T15:26:26;3.92;;;0.88;;
73699;SDS011;62005;50.082;8.988;2023-04-25T15:28:59;3.88;;;0.65;;
73699;SDS011;62005;50.082;8.988;2023-04-25T15:31:28;6.57;;;0.68;;
73699;SDS011;62005;50.082;8.988;2023-04-25T15:33:53;4.90;;;0.70;;
73699;SDS011;62005;50.082;8.988;2023-04-25T15:36:19;2.72;;;1.05;;
73699;SDS011;62005;50.082;8.988;2023-04-25T15:38:46;3.53;;;1.00;;
73699;SDS011;62005;50.082;8.988;2023-04-25T15:41:14;4.75;;;0.85;;
73699;SDS011;62005;50.082;8.988;2023-04-25T15:43:40;4.78;;;0.68;;
73699;SDS011;62005;50.082;8.988;2023-04-25T15:46:05;3.13;;;1.00;;
73699;SDS011;62005;50.082;8.988;2023-04-25T15:48:31;3.47;;;0.63;;
73699;SDS011;62005;50.082;8.988;2023-04-25T15:51:05;3.92;;;0.73;;
73699;SDS011;62005;50.082;8.988;2023-04-25T15:53:34;3.05;;;1.00;;
73699;SDS011;62005;50.082;8.988;2023-04-25T15:56:04;4.47;;;1.35;;
73699;SDS011;62005;50.082;8.988;2023-04-25T15:58:38;4.15;;;1.00;;
73699;SDS011;62005;50.082;8.988;2023-04-25T16:01:04;3.58;;;0.70;;
73699;SDS011;62005;50.082;8.988;2023-04-25T16:03:34;2.67;;;0.85;;
73699;SDS011;62005;50.082;8.988;2023-04-25T16:06:05;4.75;;;1.60;;
73699;SDS011;62005;50.082;8.988;2023-04-25T16:08:31;5.05;;;1.67;;
73699;SDS011;62005;50.082;8.988;2023-04-25T16:10:59;9.90;;;4.70;;
73699;SDS011;62005;50.082;8.988;2023-04-25T16:13:30;4.70;;;1.15;;
73699;SDS011;62005;50.082;8.988;2023-04-25T16:16:05;4.05;;;0.73;;
73699;SDS011;62005;50.082;8.988;2023-04-25T16:18:33;3.65;;;0.73;;
73699;SDS011;62005;50.082;8.988;2023-04-25T16:20:59;4.97;;;0.90;;
73699;SDS011;62005;50.082;8.988;2023-04-25T16:23:44;3.55;;;0.73;;
73699;SDS011;62005;50.082;8.988;2023-04-25T16:26:17;3.85;;;1.10;;
73699;SDS011;62005;50.082;8.988;2023-04-25T16:28:45;2.47;;;0.93;;
73699;SDS011;62005;50.082;8.988;2023-04-25T16:31:12;2.90;;;0.52;;
73699;SDS011;62005;50.082;8.988;2023-04-25T16:33:38;3.10;;;0.83;;
73699;SDS011;62005;50.082;8.988;2023-04-25T16:36:03;1.83;;;0.63;;
73699;SDS011;62005;50.082;8.988;2023-04-25T16:38:29;1.88;;;0.52;;
73699;SDS011;62005;50.082;8.988;2023-04-25T16:40:54;3.00;;;0.67;;
73699;SDS011;62005;50.082;8.988;2023-04-25T16:43:20;2.72;;;0.93;;